sensor_id;sensor_type;location;lat;lon;timestamp;P1;durP1;ratioP1;P2;durP2;ratioP2
28756;SDS011;44294;48.282;14.282;2023-02-14T00:01:06;54.67;;;24.90;;
28756;SDS011;44294;48.282;14.282;2023-02-14T00:03:54;61.70;;;26.23;;
28756;SDS011;44294;48.282;14.282;2023-02-14T00:06:43;51.93;;;25.17;;
28756;SDS011;44294;48.282;14.282;2023-02-14T00:09:30;54.33;;;24.50;;
28756;SDS011;44294;48.282;14.282;2023-02-14T00:12:18;52.30;;;24.97;;
28756;SDS011;44294;48.282;14.282;2023-02-14T00:15:05;55.00;;;25.37;;
28756;SDS011;44294;48.282;14.282;2023-02-14T00:18:07;53.97;;;24.37;;
28756;SDS011;44294;48.282;14.282;2023-02-14T00:20:58;50.87;;;23.70;;
28756;SDS011;44294;48.282;14.282;2023-02-14T00:23:43;45.87;;;22.77;;
28756;SDS011;44294;48.282;14.282;2023-02-14T00:26:31;43.97;;;22.37;;
28756;SDS011;44294;48.282;14.282;2023-02-14T00:29:19;49.30;;;22.90;;
28756;SDS011;44294;48.282;14.282;2023-02-14T00:32:07;49.07;;;23.67;;
28756;SDS011;44294;48.282;14.282;2023-02-14T00:34:54;45.67;;;22.87;;
28756;SDS011;44294;48.282;14.282;2023-02-14T00:37:41;43.33;;;21.73;;
28756;SDS011;44294;48.282;14.282;2023-02-14T00:40:29;46.40;;;22.73;;
28756;SDS011;44294;48.282;14.282;2023-02-14T00:43:16;46.60;;;22.70;;
28756;SDS011;44294;48.282;14.282;2023-02-14T00:46:04;48.00;;;23.13;;
28756;SDS011;44294;48.282;14.282;2023-02-14T00:48:51;51.80;;;23.97;;
28756;SDS011;44294;48.282;14.282;2023-02-14T00:51:38;54.20;;;25.27;;
28756;SDS011;44294;48.282;14.282;2023-02-14T00:54:26;57.10;;;24.63;;
28756;SDS011;44294;48.282;14.282;2023-02-14T00:57:13;50.73;;;23.70;;
28756;SDS011;44294;48.282;14.282;2023-02-14T01:00:01;48.93;;;23.37;;
28756;SDS011;44294;48.282;14.282;2023-02-14T01:02:48;50.67;;;24.30;;
28756;SDS011;44294;48.282;14.282;2023-02-14T01:05:35;47.53;;;22.90;;
28756;SDS011;44294;48.282;14.282;2023-02-14T01:08:23;52.70;;;24.10;;
28756;SDS011;44294;48.282;14.282;2023-02-14T01:11:14;57.70;;;25.50;;
28756;SDS011;44294;48.282;14.282;2023-02-14T01:13:59;52.53;;;23.43;;
28756;SDS011;44294;48.282;14.282;2023-02-14T01:16:47;53.53;;;23.53;;
28756;SDS011;44294;48.282;14.282;2023-02-14T01:19:34;58.97;;;24.33;;
28756;SDS011;44294;48.282;14.282;2023-02-14T01:22:22;63.93;;;25.13;;
28756;SDS011;44294;48.282;14.282;2023-02-14T01:25:09;56.63;;;24.77;;
28756;SDS011;44294;48.282;14.282;2023-02-14T01:27:56;61.33;;;25.47;;
28756;SDS011;44294;48.282;14.282;2023-02-14T01:30:43;67.17;;;26.67;;
28756;SDS011;44294;48.282;14.282;2023-02-14T01:33:31;64.87;;;26.40;;
28756;SDS011;44294;48.282;14.282;2023-02-14T01:36:19;69.27;;;27.90;;
28756;SDS011;44294;48.282;14.282;2023-02-14T01:39:09;66.23;;;27.30;;
28756;SDS011;44294;48.282;14.282;2023-02-14T01:41:56;70.27;;;27.53;;
28756;SDS011;44294;48.282;14.282;2023-02-14T01:47:33;71.20;;;26.33;;
28756;SDS011;44294;48.282;14.282;2023-02-14T01:50:26;64.17;;;25.90;;
28756;SDS011;44294;48.282;14.282;2023-02-14T01:53:15;70.53;;;27.83;;
28756;SDS011;44294;48.282;14.282;2023-02-14T01:56:04;70.40;;;27.30;;
28756;SDS011;44294;48.282;14.282;2023-02-14T01:58:52;67.33;;;26.67;;
28756;SDS011;44294;48.282;14.282;2023-02-14T02:01:40;66.70;;;26.40;;
28756;SDS011;44294;48.282;14.282;2023-02-14T02:04:29;68.47;;;26.27;;
28756;SDS011;44294;48.282;14.282;2023-02-14T02:07:17;63.77;;;25.83;;
28756;SDS011;44294;48.282;14.282;2023-02-14T02:10:07;69.37;;;26.77;;
28756;SDS011;44294;48.282;14.282;2023-02-14T02:12:54;68.87;;;26.20;;
28756;SDS011;44294;48.282;14.282;2023-02-14T02:18:44;74.87;;;27.10;;
28756;SDS011;44294;48.282;14.282;2023-02-14T02:21:41;81.73;;;28.37;;
28756;SDS011;44294;48.282;14.282;2023-02-14T02:24:30;129.93;;;32.37;;
28756;SDS011;44294;48.282;14.282;2023-02-14T02:27:33;125.83;;;29.87;;
28756;SDS011;44294;48.282;14.282;2023-02-14T02:33:37;71.60;;;25.40;;
28756;SDS011;44294;48.282;14.282;2023-02-14T02:46:01;67.13;;;24.97;;
28756;SDS011;44294;48.282;14.282;2023-02-14T02:48:04;68.37;;;25.37;;
28756;SDS011;44294;48.282;14.282;2023-02-14T02:50:52;65.50;;;24.13;;
28756;SDS011;44294;48.282;14.282;2023-02-14T02:54:08;65.70;;;23.73;;
28756;SDS011;44294;48.282;14.282;2023-02-14T02:56:54;77.80;;;25.90;;
28756;SDS011;44294;48.282;14.282;2023-02-14T02:59:43;76.77;;;25.60;;
28756;SDS011;44294;48.282;14.282;2023-02-14T03:02:32;94.13;;;25.67;;
28756;SDS011;44294;48.282;14.282;2023-02-14T03:05:22;81.87;;;25.87;;
28756;SDS011;44294;48.282;14.282;2023-02-14T03:08:09;70.27;;;24.97;;
28756;SDS011;44294;48.282;14.282;2023-02-14T03:10:57;75.23;;;25.10;;
28756;SDS011;44294;48.282;14.282;2023-02-14T03:16:58;125.83;;;29.33;;
28756;SDS011;44294;48.282;14.282;2023-02-14T03:29:05;124.70;;;30.60;;
28756;SDS011;44294;48.282;14.282;2023-02-14T03:37:42;82.07;;;27.47;;
28756;SDS011;44294;48.282;14.282;2023-02-14T03:40:39;88.40;;;27.30;;
28756;SDS011;44294;48.282;14.282;2023-02-14T03:43:33;274.00;;;35.43;;
28756;SDS011;44294;48.282;14.282;2023-02-14T03:46:23;86.07;;;29.30;;
28756;SDS011;44294;48.282;14.282;2023-02-14T03:49:11;84.33;;;27.40;;
28756;SDS011;44294;48.282;14.282;2023-02-14T03:51:59;87.00;;;28.60;;
28756;SDS011;44294;48.282;14.282;2023-02-14T03:54:48;111.03;;;28.23;;
28756;SDS011;44294;48.282;14.282;2023-02-14T03:57:41;90.23;;;28.13;;
28756;SDS011;44294;48.282;14.282;2023-02-14T04:00:27;128.03;;;30.87;;
28756;SDS011;44294;48.282;14.282;2023-02-14T04:03:15;98.13;;;31.13;;
28756;SDS011;44294;48.282;14.282;2023-02-14T04:06:04;124.23;;;32.67;;
28756;SDS011;44294;48.282;14.282;2023-02-14T04:08:52;117.00;;;33.37;;
28756;SDS011;44294;48.282;14.282;2023-02-14T04:11:40;93.30;;;29.87;;
28756;SDS011;44294;48.282;14.282;2023-02-14T04:14:28;263.13;;;38.30;;
28756;SDS011;44294;48.282;14.282;2023-02-14T04:17:15;111.53;;;33.00;;
28756;SDS011;44294;48.282;14.282;2023-02-14T04:20:21;126.87;;;34.77;;
28756;SDS011;44294;48.282;14.282;2023-02-14T04:23:08;107.17;;;32.97;;
28756;SDS011;44294;48.282;14.282;2023-02-14T04:25:55;103.63;;;33.57;;
28756;SDS011;44294;48.282;14.282;2023-02-14T04:28:42;117.47;;;35.13;;
28756;SDS011;44294;48.282;14.282;2023-02-14T04:31:30;129.20;;;35.07;;
28756;SDS011;44294;48.282;14.282;2023-02-14T04:34:17;210.50;;;37.67;;
28756;SDS011;44294;48.282;14.282;2023-02-14T04:37:05;111.77;;;35.37;;
28756;SDS011;44294;48.282;14.282;2023-02-14T04:39:52;117.43;;;34.40;;
28756;SDS011;44294;48.282;14.282;2023-02-14T04:42:39;105.10;;;34.17;;
28756;SDS011;44294;48.282;14.282;2023-02-14T04:45:27;107.67;;;35.73;;
28756;SDS011;44294;48.282;14.282;2023-02-14T04:48:14;557.33;;;50.97;;
28756;SDS011;44294;48.282;14.282;2023-02-14T04:51:01;303.90;;;49.73;;
28756;SDS011;44294;48.282;14.282;2023-02-14T04:53:49;179.47;;;43.63;;
28756;SDS011;44294;48.282;14.282;2023-02-14T04:56:36;130.70;;;39.57;;
28756;SDS011;44294;48.282;14.282;2023-02-14T04:59:23;324.90;;;44.60;;
28756;SDS011;44294;48.282;14.282;2023-02-14T05:02:11;150.83;;;42.40;;
28756;SDS011;44294;48.282;14.282;2023-02-14T05:04:58;133.60;;;41.40;;
28756;SDS011;44294;48.282;14.282;2023-02-14T05:07:45;324.43;;;46.47;;
28756;SDS011;44294;48.282;14.282;2023-02-14T05:10:33;180.97;;;43.23;;
28756;SDS011;44294;48.282;14.282;2023-02-14T05:13:20;211.43;;;44.83;;
28756;SDS011;44294;48.282;14.282;2023-02-14T05:16:08;232.53;;;42.90;;
28756;SDS011;44294;48.282;14.282;2023-02-14T05:18:55;139.17;;;39.43;;
28756;SDS011;44294;48.282;14.282;2023-02-14T05:21:42;238.63;;;42.67;;
28756;SDS011;44294;48.282;14.282;2023-02-14T05:24:30;107.13;;;36.37;;
28756;SDS011;44294;48.282;14.282;2023-02-14T05:27:17;120.83;;;36.20;;
28756;SDS011;44294;48.282;14.282;2023-02-14T05:30:05;99.83;;;34.73;;
28756;SDS011;44294;48.282;14.282;2023-02-14T05:32:52;92.20;;;34.77;;
28756;SDS011;44294;48.282;14.282;2023-02-14T05:35:40;93.27;;;33.60;;
28756;SDS011;44294;48.282;14.282;2023-02-14T05:38:27;117.93;;;32.93;;
28756;SDS011;44294;48.282;14.282;2023-02-14T05:41:15;246.13;;;36.17;;
28756;SDS011;44294;48.282;14.282;2023-02-14T05:44:02;186.40;;;37.13;;
28756;SDS011;44294;48.282;14.282;2023-02-14T05:46:50;171.63;;;34.50;;
28756;SDS011;44294;48.282;14.282;2023-02-14T05:49:37;185.80;;;34.40;;
28756;SDS011;44294;48.282;14.282;2023-02-14T05:52:24;101.37;;;30.47;;
28756;SDS011;44294;48.282;14.282;2023-02-14T05:55:11;166.10;;;32.50;;
28756;SDS011;44294;48.282;14.282;2023-02-14T05:57:59;115.17;;;30.13;;
28756;SDS011;44294;48.282;14.282;2023-02-14T06:00:46;147.17;;;30.87;;
28756;SDS011;44294;48.282;14.282;2023-02-14T06:03:33;85.13;;;28.97;;
28756;SDS011;44294;48.282;14.282;2023-02-14T06:06:21;78.20;;;27.97;;
28756;SDS011;44294;48.282;14.282;2023-02-14T06:09:08;79.33;;;28.43;;
28756;SDS011;44294;48.282;14.282;2023-02-14T06:11:55;70.00;;;27.10;;
28756;SDS011;44294;48.282;14.282;2023-02-14T06:14:44;200.57;;;32.37;;
28756;SDS011;44294;48.282;14.282;2023-02-14T06:17:31;147.20;;;30.57;;
28756;SDS011;44294;48.282;14.282;2023-02-14T06:20:19;178.10;;;30.37;;
28756;SDS011;44294;48.282;14.282;2023-02-14T06:23:06;132.47;;;29.07;;
28756;SDS011;44294;48.282;14.282;2023-02-14T06:25:53;172.77;;;29.83;;
28756;SDS011;44294;48.282;14.282;2023-02-14T06:28:41;291.47;;;30.67;;
28756;SDS011;44294;48.282;14.282;2023-02-14T06:31:28;155.43;;;28.43;;
28756;SDS011;44294;48.282;14.282;2023-02-14T06:34:15;179.33;;;28.00;;
28756;SDS011;44294;48.282;14.282;2023-02-14T06:37:03;133.40;;;27.60;;
28756;SDS011;44294;48.282;14.282;2023-02-14T06:39:50;73.00;;;24.90;;
28756;SDS011;44294;48.282;14.282;2023-02-14T06:42:37;195.27;;;26.97;;
28756;SDS011;44294;48.282;14.282;2023-02-14T06:45:25;85.30;;;23.60;;
28756;SDS011;44294;48.282;14.282;2023-02-14T06:48:12;60.83;;;20.63;;
28756;SDS011;44294;48.282;14.282;2023-02-14T06:50:59;62.87;;;20.60;;
28756;SDS011;44294;48.282;14.282;2023-02-14T06:53:47;65.40;;;20.17;;
28756;SDS011;44294;48.282;14.282;2023-02-14T06:56:34;59.77;;;18.00;;
28756;SDS011;44294;48.282;14.282;2023-02-14T06:59:21;72.33;;;19.90;;
28756;SDS011;44294;48.282;14.282;2023-02-14T07:02:09;78.47;;;18.97;;
28756;SDS011;44294;48.282;14.282;2023-02-14T07:04:57;47.33;;;18.10;;
28756;SDS011;44294;48.282;14.282;2023-02-14T07:07:44;84.17;;;20.43;;
28756;SDS011;44294;48.282;14.282;2023-02-14T07:10:32;45.93;;;16.87;;
28756;SDS011;44294;48.282;14.282;2023-02-14T07:13:19;39.10;;;17.27;;
28756;SDS011;44294;48.282;14.282;2023-02-14T07:16:06;41.60;;;17.40;;
28756;SDS011;44294;48.282;14.282;2023-02-14T07:18:54;53.77;;;17.70;;
28756;SDS011;44294;48.282;14.282;2023-02-14T07:21:41;37.80;;;17.00;;
28756;SDS011;44294;48.282;14.282;2023-02-14T07:24:28;36.70;;;17.13;;
28756;SDS011;44294;48.282;14.282;2023-02-14T07:27:16;52.43;;;19.87;;
28756;SDS011;44294;48.282;14.282;2023-02-14T07:30:03;84.43;;;20.40;;
28756;SDS011;44294;48.282;14.282;2023-02-14T07:32:51;73.30;;;20.90;;
28756;SDS011;44294;48.282;14.282;2023-02-14T07:35:38;42.93;;;20.20;;
28756;SDS011;44294;48.282;14.282;2023-02-14T07:38:26;42.53;;;19.30;;
28756;SDS011;44294;48.282;14.282;2023-02-14T07:41:14;52.63;;;20.87;;
28756;SDS011;44294;48.282;14.282;2023-02-14T07:44:02;35.03;;;17.10;;
28756;SDS011;44294;48.282;14.282;2023-02-14T07:46:49;33.33;;;16.20;;
28756;SDS011;44294;48.282;14.282;2023-02-14T07:49:36;67.93;;;20.53;;
28756;SDS011;44294;48.282;14.282;2023-02-14T07:52:24;37.20;;;16.67;;
28756;SDS011;44294;48.282;14.282;2023-02-14T07:55:11;51.27;;;19.83;;
28756;SDS011;44294;48.282;14.282;2023-02-14T07:57:58;77.30;;;21.47;;
28756;SDS011;44294;48.282;14.282;2023-02-14T08:00:46;78.53;;;20.60;;
28756;SDS011;44294;48.282;14.282;2023-02-14T08:03:33;37.37;;;18.57;;
28756;SDS011;44294;48.282;14.282;2023-02-14T08:06:20;112.83;;;21.90;;
28756;SDS011;44294;48.282;14.282;2023-02-14T08:09:08;43.63;;;17.93;;
28756;SDS011;44294;48.282;14.282;2023-02-14T08:11:56;33.03;;;15.47;;
28756;SDS011;44294;48.282;14.282;2023-02-14T08:15:02;29.67;;;15.43;;
28756;SDS011;44294;48.282;14.282;2023-02-14T08:18:07;30.77;;;15.10;;
28756;SDS011;44294;48.282;14.282;2023-02-14T08:20:55;30.27;;;15.47;;
28756;SDS011;44294;48.282;14.282;2023-02-14T08:23:42;32.80;;;16.67;;
28756;SDS011;44294;48.282;14.282;2023-02-14T08:26:29;27.37;;;13.83;;
28756;SDS011;44294;48.282;14.282;2023-02-14T08:29:17;31.27;;;16.10;;
28756;SDS011;44294;48.282;14.282;2023-02-14T08:32:05;27.23;;;13.93;;
28756;SDS011;44294;48.282;14.282;2023-02-14T08:34:52;28.50;;;14.90;;
28756;SDS011;44294;48.282;14.282;2023-02-14T08:37:39;46.93;;;23.13;;
28756;SDS011;44294;48.282;14.282;2023-02-14T08:40:27;40.80;;;20.00;;
28756;SDS011;44294;48.282;14.282;2023-02-14T08:43:14;30.23;;;14.70;;
28756;SDS011;44294;48.282;14.282;2023-02-14T08:46:02;41.03;;;15.60;;
28756;SDS011;44294;48.282;14.282;2023-02-14T08:48:49;60.67;;;27.07;;
28756;SDS011;44294;48.282;14.282;2023-02-14T08:51:38;32.03;;;15.17;;
28756;SDS011;44294;48.282;14.282;2023-02-14T08:54:26;33.03;;;14.43;;
28756;SDS011;44294;48.282;14.282;2023-02-14T08:57:13;29.40;;;13.63;;
28756;SDS011;44294;48.282;14.282;2023-02-14T09:00:01;26.53;;;13.67;;
28756;SDS011;44294;48.282;14.282;2023-02-14T09:02:51;32.17;;;15.97;;
28756;SDS011;44294;48.282;14.282;2023-02-14T09:05:39;29.93;;;14.90;;
28756;SDS011;44294;48.282;14.282;2023-02-14T09:08:26;31.23;;;14.03;;
28756;SDS011;44294;48.282;14.282;2023-02-14T09:11:18;30.87;;;15.30;;
28756;SDS011;44294;48.282;14.282;2023-02-14T09:14:03;27.27;;;14.07;;
28756;SDS011;44294;48.282;14.282;2023-02-14T09:16:51;26.33;;;13.57;;
28756;SDS011;44294;48.282;14.282;2023-02-14T09:19:38;28.97;;;13.83;;
28756;SDS011;44294;48.282;14.282;2023-02-14T09:22:25;26.27;;;13.10;;
28756;SDS011;44294;48.282;14.282;2023-02-14T09:25:13;29.80;;;14.90;;
28756;SDS011;44294;48.282;14.282;2023-02-14T09:28:00;41.53;;;21.07;;
28756;SDS011;44294;48.282;14.282;2023-02-14T09:30:47;32.07;;;16.20;;
28756;SDS011;44294;48.282;14.282;2023-02-14T09:33:35;27.17;;;13.63;;
28756;SDS011;44294;48.282;14.282;2023-02-14T09:36:40;24.60;;;12.80;;
28756;SDS011;44294;48.282;14.282;2023-02-14T09:39:45;25.73;;;13.53;;
28756;SDS011;44294;48.282;14.282;2023-02-14T09:42:35;23.80;;;13.17;;
28756;SDS011;44294;48.282;14.282;2023-02-14T09:45:23;32.60;;;15.20;;
28756;SDS011;44294;48.282;14.282;2023-02-14T09:48:25;25.63;;;13.23;;
28756;SDS011;44294;48.282;14.282;2023-02-14T09:51:13;29.20;;;14.60;;
28756;SDS011;44294;48.282;14.282;2023-02-14T09:54:02;27.37;;;14.17;;
28756;SDS011;44294;48.282;14.282;2023-02-14T09:56:57;28.43;;;14.10;;
28756;SDS011;44294;48.282;14.282;2023-02-14T10:02:43;28.33;;;14.87;;
28756;SDS011;44294;48.282;14.282;2023-02-14T10:05:34;27.87;;;14.60;;
28756;SDS011;44294;48.282;14.282;2023-02-14T10:09:10;25.87;;;13.70;;
28756;SDS011;44294;48.282;14.282;2023-02-14T10:11:11;24.63;;;12.57;;
28756;SDS011;44294;48.282;14.282;2023-02-14T10:14:00;26.77;;;13.77;;
28756;SDS011;44294;48.282;14.282;2023-02-14T10:17:07;27.20;;;14.50;;
28756;SDS011;44294;48.282;14.282;2023-02-14T10:19:58;27.00;;;13.87;;
28756;SDS011;44294;48.282;14.282;2023-02-14T10:22:49;37.40;;;17.30;;
28756;SDS011;44294;48.282;14.282;2023-02-14T10:25:46;29.33;;;14.83;;
28756;SDS011;44294;48.282;14.282;2023-02-14T10:28:36;30.40;;;14.97;;
28756;SDS011;44294;48.282;14.282;2023-02-14T10:31:25;29.03;;;15.03;;
28756;SDS011;44294;48.282;14.282;2023-02-14T10:40:14;26.50;;;13.60;;
28756;SDS011;44294;48.282;14.282;2023-02-14T10:43:15;28.07;;;14.23;;
28756;SDS011;44294;48.282;14.282;2023-02-14T10:49:01;27.57;;;14.23;;
28756;SDS011;44294;48.282;14.282;2023-02-14T10:51:50;28.03;;;14.43;;
28756;SDS011;44294;48.282;14.282;2023-02-14T10:54:38;27.77;;;14.27;;
28756;SDS011;44294;48.282;14.282;2023-02-14T10:57:30;38.87;;;17.73;;
28756;SDS011;44294;48.282;14.282;2023-02-14T11:00:27;27.87;;;14.30;;
28756;SDS011;44294;48.282;14.282;2023-02-14T11:03:10;30.73;;;14.47;;
28756;SDS011;44294;48.282;14.282;2023-02-14T11:05:59;32.53;;;15.20;;
28756;SDS011;44294;48.282;14.282;2023-02-14T11:08:46;31.50;;;16.00;;
28756;SDS011;44294;48.282;14.282;2023-02-14T11:11:37;29.70;;;14.93;;
28756;SDS011;44294;48.282;14.282;2023-02-14T11:14:29;30.47;;;15.13;;
28756;SDS011;44294;48.282;14.282;2023-02-14T11:17:27;29.13;;;14.47;;
28756;SDS011;44294;48.282;14.282;2023-02-14T11:23:17;27.90;;;14.33;;
28756;SDS011;44294;48.282;14.282;2023-02-14T11:29:15;32.47;;;15.60;;
28756;SDS011;44294;48.282;14.282;2023-02-14T11:32:09;31.63;;;15.00;;
28756;SDS011;44294;48.282;14.282;2023-02-14T11:35:01;46.33;;;18.90;;
28756;SDS011;44294;48.282;14.282;2023-02-14T11:37:49;36.33;;;17.33;;
28756;SDS011;44294;48.282;14.282;2023-02-14T11:40:38;44.57;;;18.43;;
28756;SDS011;44294;48.282;14.282;2023-02-14T11:43:30;39.13;;;18.07;;
28756;SDS011;44294;48.282;14.282;2023-02-14T11:49:21;30.50;;;15.20;;
28756;SDS011;44294;48.282;14.282;2023-02-14T11:51:59;35.80;;;17.93;;
28756;SDS011;44294;48.282;14.282;2023-02-14T11:54:47;32.07;;;15.53;;
28756;SDS011;44294;48.282;14.282;2023-02-14T11:57:36;32.07;;;15.63;;
28756;SDS011;44294;48.282;14.282;2023-02-14T12:00:24;40.10;;;18.23;;
28756;SDS011;44294;48.282;14.282;2023-02-14T12:03:16;37.03;;;16.93;;
28756;SDS011;44294;48.282;14.282;2023-02-14T12:06:05;36.97;;;16.90;;
28756;SDS011;44294;48.282;14.282;2023-02-14T12:11:58;35.50;;;16.97;;
28756;SDS011;44294;48.282;14.282;2023-02-14T12:14:46;46.63;;;18.77;;
28756;SDS011;44294;48.282;14.282;2023-02-14T12:17:34;35.57;;;15.40;;
28756;SDS011;44294;48.282;14.282;2023-02-14T12:20:25;34.43;;;15.40;;
28756;SDS011;44294;48.282;14.282;2023-02-14T12:29:19;35.00;;;15.90;;
28756;SDS011;44294;48.282;14.282;2023-02-14T12:41:47;34.47;;;16.60;;
28756;SDS011;44294;48.282;14.282;2023-02-14T12:43:53;33.57;;;16.37;;
28756;SDS011;44294;48.282;14.282;2023-02-14T12:49:50;41.90;;;17.00;;
28756;SDS011;44294;48.282;14.282;2023-02-14T12:52:42;31.57;;;14.63;;
28756;SDS011;44294;48.282;14.282;2023-02-14T13:01:42;40.13;;;18.00;;
28756;SDS011;44294;48.282;14.282;2023-02-14T13:04:38;56.53;;;18.13;;
28756;SDS011;44294;48.282;14.282;2023-02-14T13:07:35;46.17;;;18.93;;
28756;SDS011;44294;48.282;14.282;2023-02-14T13:10:24;45.40;;;17.50;;
28756;SDS011;44294;48.282;14.282;2023-02-14T13:13:15;41.43;;;18.73;;
28756;SDS011;44294;48.282;14.282;2023-02-14T13:19:12;34.40;;;15.87;;
28756;SDS011;44294;48.282;14.282;2023-02-14T13:21:54;32.47;;;15.27;;
28756;SDS011;44294;48.282;14.282;2023-02-14T13:24:43;32.23;;;15.40;;
28756;SDS011;44294;48.282;14.282;2023-02-14T13:27:32;29.97;;;15.00;;
28756;SDS011;44294;48.282;14.282;2023-02-14T13:30:29;38.30;;;17.83;;
28756;SDS011;44294;48.282;14.282;2023-02-14T13:33:25;37.93;;;17.53;;
28756;SDS011;44294;48.282;14.282;2023-02-14T13:36:12;33.20;;;16.40;;
28756;SDS011;44294;48.282;14.282;2023-02-14T13:39:00;29.37;;;15.13;;
28756;SDS011;44294;48.282;14.282;2023-02-14T13:41:48;35.07;;;16.60;;
28756;SDS011;44294;48.282;14.282;2023-02-14T13:44:42;32.57;;;16.43;;
28756;SDS011;44294;48.282;14.282;2023-02-14T13:47:30;29.93;;;14.63;;
28756;SDS011;44294;48.282;14.282;2023-02-14T13:50:20;33.13;;;16.03;;
28756;SDS011;44294;48.282;14.282;2023-02-14T13:53:11;33.37;;;16.07;;
28756;SDS011;44294;48.282;14.282;2023-02-14T13:55:59;39.27;;;18.20;;
28756;SDS011;44294;48.282;14.282;2023-02-14T13:58:50;39.07;;;16.97;;
28756;SDS011;44294;48.282;14.282;2023-02-14T14:01:39;40.07;;;18.23;;
28756;SDS011;44294;48.282;14.282;2023-02-14T14:04:32;37.23;;;17.50;;
28756;SDS011;44294;48.282;14.282;2023-02-14T14:07:21;36.97;;;17.03;;
28756;SDS011;44294;48.282;14.282;2023-02-14T14:10:10;44.17;;;19.10;;
28756;SDS011;44294;48.282;14.282;2023-02-14T14:12:58;36.93;;;16.60;;
28756;SDS011;44294;48.282;14.282;2023-02-14T14:21:40;39.57;;;18.63;;
28756;SDS011;44294;48.282;14.282;2023-02-14T14:24:30;39.07;;;18.87;;
28756;SDS011;44294;48.282;14.282;2023-02-14T14:27:19;39.77;;;18.17;;
28756;SDS011;44294;48.282;14.282;2023-02-14T14:30:24;35.80;;;17.33;;
28756;SDS011;44294;48.282;14.282;2023-02-14T14:33:12;39.00;;;17.70;;
28756;SDS011;44294;48.282;14.282;2023-02-14T14:36:04;40.90;;;18.10;;
28756;SDS011;44294;48.282;14.282;2023-02-14T14:38:50;37.27;;;16.97;;
28756;SDS011;44294;48.282;14.282;2023-02-14T14:41:39;40.97;;;18.97;;
28756;SDS011;44294;48.282;14.282;2023-02-14T14:44:26;42.50;;;18.97;;
28756;SDS011;44294;48.282;14.282;2023-02-14T14:47:16;39.17;;;17.40;;
28756;SDS011;44294;48.282;14.282;2023-02-14T14:50:04;37.23;;;16.67;;
28756;SDS011;44294;48.282;14.282;2023-02-14T14:52:59;41.20;;;17.73;;
28756;SDS011;44294;48.282;14.282;2023-02-14T14:55:47;41.50;;;18.07;;
28756;SDS011;44294;48.282;14.282;2023-02-14T14:58:38;37.03;;;17.33;;
28756;SDS011;44294;48.282;14.282;2023-02-14T15:01:31;43.87;;;18.40;;
28756;SDS011;44294;48.282;14.282;2023-02-14T15:04:25;40.07;;;18.37;;
28756;SDS011;44294;48.282;14.282;2023-02-14T15:07:17;39.80;;;18.23;;
28756;SDS011;44294;48.282;14.282;2023-02-14T15:10:19;36.47;;;17.20;;
28756;SDS011;44294;48.282;14.282;2023-02-14T15:12:54;42.20;;;19.33;;
28756;SDS011;44294;48.282;14.282;2023-02-14T15:16:00;57.83;;;23.77;;
28756;SDS011;44294;48.282;14.282;2023-02-14T15:18:47;45.53;;;20.07;;
28756;SDS011;44294;48.282;14.282;2023-02-14T15:21:35;52.67;;;22.70;;
28756;SDS011;44294;48.282;14.282;2023-02-14T15:24:22;55.07;;;23.53;;
28756;SDS011;44294;48.282;14.282;2023-02-14T15:27:15;58.00;;;23.73;;
28756;SDS011;44294;48.282;14.282;2023-02-14T15:30:04;67.87;;;29.07;;
28756;SDS011;44294;48.282;14.282;2023-02-14T15:32:53;60.80;;;26.27;;
28756;SDS011;44294;48.282;14.282;2023-02-14T15:35:41;53.33;;;22.97;;
28756;SDS011;44294;48.282;14.282;2023-02-14T15:38:29;54.47;;;23.60;;
28756;SDS011;44294;48.282;14.282;2023-02-14T15:41:17;58.60;;;25.20;;
28756;SDS011;44294;48.282;14.282;2023-02-14T15:44:16;52.40;;;21.90;;
28756;SDS011;44294;48.282;14.282;2023-02-14T15:47:00;50.30;;;21.47;;
28756;SDS011;44294;48.282;14.282;2023-02-14T15:49:49;54.03;;;22.37;;
28756;SDS011;44294;48.282;14.282;2023-02-14T15:52:38;50.43;;;22.13;;
28756;SDS011;44294;48.282;14.282;2023-02-14T15:55:25;69.70;;;25.67;;
28756;SDS011;44294;48.282;14.282;2023-02-14T15:58:22;64.47;;;25.00;;
28756;SDS011;44294;48.282;14.282;2023-02-14T16:01:02;52.53;;;22.57;;
28756;SDS011;44294;48.282;14.282;2023-02-14T16:03:50;67.83;;;26.47;;
28756;SDS011;44294;48.282;14.282;2023-02-14T16:06:39;53.20;;;21.93;;
28756;SDS011;44294;48.282;14.282;2023-02-14T16:09:29;51.30;;;22.00;;
28756;SDS011;44294;48.282;14.282;2023-02-14T16:12:26;57.73;;;23.23;;
28756;SDS011;44294;48.282;14.282;2023-02-14T16:18:14;87.20;;;30.70;;
28756;SDS011;44294;48.282;14.282;2023-02-14T16:20:52;73.40;;;29.17;;
28756;SDS011;44294;48.282;14.282;2023-02-14T16:23:39;89.03;;;32.17;;
28756;SDS011;44294;48.282;14.282;2023-02-14T16:26:27;82.17;;;31.03;;
28756;SDS011;44294;48.282;14.282;2023-02-14T16:29:15;84.83;;;31.70;;
28756;SDS011;44294;48.282;14.282;2023-02-14T16:32:12;83.27;;;30.77;;
28756;SDS011;44294;48.282;14.282;2023-02-14T16:35:00;78.17;;;29.20;;
28756;SDS011;44294;48.282;14.282;2023-02-14T16:37:48;76.67;;;29.37;;
28756;SDS011;44294;48.282;14.282;2023-02-14T16:40:37;97.30;;;32.57;;
28756;SDS011;44294;48.282;14.282;2023-02-14T16:43:24;93.27;;;33.93;;
28756;SDS011;44294;48.282;14.282;2023-02-14T16:46:13;86.67;;;34.47;;
28756;SDS011;44294;48.282;14.282;2023-02-14T16:49:00;143.80;;;36.73;;
28756;SDS011;44294;48.282;14.282;2023-02-14T16:51:48;90.73;;;32.63;;
28756;SDS011;44294;48.282;14.282;2023-02-14T16:54:35;130.30;;;33.70;;
28756;SDS011;44294;48.282;14.282;2023-02-14T16:57:24;80.90;;;28.87;;
28756;SDS011;44294;48.282;14.282;2023-02-14T17:00:11;86.10;;;29.90;;
28756;SDS011;44294;48.282;14.282;2023-02-14T17:02:59;81.33;;;28.97;;
28756;SDS011;44294;48.282;14.282;2023-02-14T17:05:53;81.50;;;29.57;;
28756;SDS011;44294;48.282;14.282;2023-02-14T17:08:41;93.73;;;31.87;;
28756;SDS011;44294;48.282;14.282;2023-02-14T17:11:29;99.20;;;30.73;;
28756;SDS011;44294;48.282;14.282;2023-02-14T17:14:19;92.40;;;30.00;;
28756;SDS011;44294;48.282;14.282;2023-02-14T17:17:06;131.07;;;33.27;;
28756;SDS011;44294;48.282;14.282;2023-02-14T17:19:54;141.93;;;33.53;;
28756;SDS011;44294;48.282;14.282;2023-02-14T17:22:43;109.37;;;31.27;;
28756;SDS011;44294;48.282;14.282;2023-02-14T17:25:30;91.37;;;29.63;;
28756;SDS011;44294;48.282;14.282;2023-02-14T17:28:17;94.00;;;30.07;;
28756;SDS011;44294;48.282;14.282;2023-02-14T17:31:05;168.67;;;33.27;;
28756;SDS011;44294;48.282;14.282;2023-02-14T17:33:53;85.40;;;28.83;;
28756;SDS011;44294;48.282;14.282;2023-02-14T17:36:40;100.60;;;31.73;;
28756;SDS011;44294;48.282;14.282;2023-02-14T17:39:27;106.33;;;30.20;;
28756;SDS011;44294;48.282;14.282;2023-02-14T17:42:14;87.20;;;28.73;;
28756;SDS011;44294;48.282;14.282;2023-02-14T17:45:02;105.87;;;32.03;;
28756;SDS011;44294;48.282;14.282;2023-02-14T17:47:51;92.63;;;31.37;;